createdAt,value
2023-03-04T00:00:01.028Z,0.95
2023-03-04T00:02:27.663Z,0.97
2023-03-04T00:04:54.302Z,0.93
2023-03-04T00:07:21.023Z,0.92
2023-03-04T00:09:47.709Z,0.87
2023-03-04T00:12:14.575Z,0.85
2023-03-04T00:14:41.446Z,0.82
2023-03-04T00:17:09.014Z,0.78
2023-03-04T00:19:36.043Z,0.77
2023-03-04T00:22:04.214Z,0.75
2023-03-04T00:24:31.541Z,0.73
2023-03-04T00:26:58.210Z,0.71
2023-03-04T00:29:24.879Z,0.70
2023-03-04T00:31:51.575Z,0.67
2023-03-04T00:34:18.229Z,0.64
2023-03-04T00:36:44.943Z,0.61
2023-03-04T00:39:12.409Z,0.57
2023-03-04T00:41:39.712Z,0.56
2023-03-04T00:44:06.750Z,0.54
2023-03-04T00:46:33.393Z,0.51
2023-03-04T00:49:00.000Z,0.47
2023-03-04T00:51:26.714Z,0.42
2023-03-04T00:53:53.323Z,0.39
2023-03-04T00:56:19.943Z,0.38
2023-03-04T00:58:46.579Z,0.35
2023-03-04T01:01:13.246Z,0.34
2023-03-04T01:03:41.577Z,0.30
2023-03-04T01:06:08.778Z,0.28
2023-03-04T01:08:36.265Z,0.26
2023-03-04T01:11:03.342Z,0.23
2023-03-04T01:13:29.996Z,0.22
2023-03-04T01:15:57.674Z,0.21
2023-03-04T01:18:24.747Z,0.19
2023-03-04T01:20:51.404Z,0.17
2023-03-04T01:23:18.077Z,0.15
2023-03-04T01:25:44.684Z,0.12
2023-03-04T01:28:11.574Z,0.10
2023-03-04T01:30:38.240Z,0.06
2023-03-04T01:33:04.861Z,0.07
2023-03-04T01:35:31.488Z,0.06
2023-03-04T01:37:58.132Z,0.05
2023-03-04T01:40:24.823Z,0.02
2023-03-04T01:42:51.729Z,-0.01
2023-03-04T01:45:20.111Z,-0.04
2023-03-04T01:47:49.346Z,-0.05
2023-03-04T01:50:33.477Z,-0.09
2023-03-04T01:53:00.913Z,-0.14
2023-03-04T01:55:29.976Z,-0.18
2023-03-04T01:57:59.667Z,-0.19
2023-03-04T02:00:31.230Z,-0.20
2023-03-04T02:03:01.566Z,-0.22
2023-03-04T02:05:29.425Z,-0.23
2023-03-04T02:07:58.308Z,-0.28
2023-03-04T02:10:25.275Z,-0.30
2023-03-04T02:12:52.751Z,-0.33
2023-03-04T02:15:20.069Z,-0.35
2023-03-04T02:17:46.810Z,-0.38
2023-03-04T02:20:31.166Z,-0.39
2023-03-04T02:23:40.337Z,-0.40
2023-03-04T02:26:14.877Z,-0.42
2023-03-04T02:28:41.746Z,-0.41
2023-03-04T02:31:23.397Z,-0.41
2023-03-04T02:33:51.221Z,-0.42
2023-03-04T02:36:18.252Z,-0.43
2023-03-04T02:38:44.870Z,-0.45
2023-03-04T02:41:16.427Z,-0.48
2023-03-04T02:43:45.768Z,-0.51
2023-03-04T02:46:13.042Z,-0.51
2023-03-04T02:48:40.165Z,-0.51
2023-03-04T02:51:06.817Z,-0.52
2023-03-04T02:53:33.500Z,-0.50
2023-03-04T02:56:00.160Z,-0.50
2023-03-04T02:58:26.905Z,-0.49
2023-03-04T03:00:53.512Z,-0.47
2023-03-04T03:03:20.157Z,-0.50
2023-03-04T03:05:46.891Z,-0.45
2023-03-04T03:08:13.712Z,-0.45
2023-03-04T03:10:40.368Z,-0.49
2023-03-04T03:13:07.118Z,-0.54
2023-03-04T03:15:33.755Z,-0.58
2023-03-04T03:18:00.385Z,-0.59
2023-03-04T03:20:27.235Z,-0.57
2023-03-04T03:22:53.860Z,-0.62
2023-03-04T03:25:20.500Z,-0.63
2023-03-04T03:27:47.168Z,-0.66
2023-03-04T03:30:15.516Z,-0.69
2023-03-04T03:32:42.168Z,-0.72
2023-03-04T03:35:10.172Z,-0.71
2023-03-04T03:37:37.025Z,-0.73
2023-03-04T03:40:04.590Z,-0.75
2023-03-04T03:42:31.329Z,-0.81
2023-03-04T03:44:57.955Z,-0.88
2023-03-04T03:47:24.684Z,-0.92
2023-03-04T03:49:51.380Z,-1.01
2023-03-04T03:52:18.083Z,-1.07
2023-03-04T03:54:44.743Z,-1.14
2023-03-04T03:57:11.355Z,-1.17
2023-03-04T03:59:38.037Z,-1.18
2023-03-04T04:02:04.915Z,-1.21
2023-03-04T04:04:31.708Z,-1.28
2023-03-04T04:06:58.352Z,-1.27
2023-03-04T04:09:24.978Z,-1.34
2023-03-04T04:11:51.603Z,-1.35
2023-03-04T04:14:18.228Z,-1.40
2023-03-04T04:16:44.907Z,-1.45
2023-03-04T04:19:18.751Z,-1.52
2023-03-04T04:21:46.290Z,-1.55
2023-03-04T04:24:13.099Z,-1.62
2023-03-04T04:26:40.133Z,-1.64
2023-03-04T04:29:07.167Z,-1.67
2023-03-04T04:31:34.443Z,-1.70
2023-03-04T04:34:01.163Z,-1.70
2023-03-04T04:36:28.071Z,-1.71
2023-03-04T04:38:54.800Z,-1.72
2023-03-04T04:41:27.538Z,-1.74
2023-03-04T04:43:54.233Z,-1.76
2023-03-04T04:46:21.134Z,-1.80
2023-03-04T04:48:47.967Z,-1.78
2023-03-04T04:51:14.706Z,-1.76
2023-03-04T04:53:41.595Z,-1.75
2023-03-04T04:56:13.316Z,-1.75
2023-03-04T04:58:40.154Z,-1.76
2023-03-04T05:01:07.096Z,-1.79
2023-03-04T05:03:35.461Z,-1.85
2023-03-04T05:06:02.637Z,-1.89
2023-03-04T05:08:29.458Z,-1.95
2023-03-04T05:10:56.144Z,-1.99
2023-03-04T05:13:22.790Z,-2.02
2023-03-04T05:15:53.279Z,-2.06
2023-03-04T05:18:22.075Z,-2.03
2023-03-04T05:21:00.013Z,-2.13
2023-03-04T05:23:28.769Z,-2.19
2023-03-04T05:25:55.651Z,-2.20
2023-03-04T05:28:22.270Z,-2.23
2023-03-04T05:30:49.370Z,-2.25
2023-03-04T05:33:17.576Z,-2.28
2023-03-04T05:35:45.209Z,-2.30
2023-03-04T05:38:14.845Z,-2.33
2023-03-04T05:40:42.086Z,-2.33
2023-03-04T05:43:09.649Z,-2.31
2023-03-04T05:45:37.054Z,-2.28
2023-03-04T05:48:04.418Z,-2.31
2023-03-04T05:50:31.434Z,-2.30
2023-03-04T05:52:58.057Z,-2.31
2023-03-04T05:55:25.667Z,-2.29
2023-03-04T05:57:52.282Z,-2.28
2023-03-04T06:00:19.158Z,-2.30
2023-03-04T06:02:46.000Z,-2.35
2023-03-04T06:05:15.006Z,-2.41
2023-03-04T06:07:45.775Z,-2.45
2023-03-04T06:10:15.365Z,-2.42
2023-03-04T06:12:42.794Z,-2.42
2023-03-04T06:15:10.501Z,-2.47
2023-03-04T06:17:40.617Z,-2.45
2023-03-04T06:20:09.554Z,-2.40
2023-03-04T06:22:36.206Z,-2.40
2023-03-04T06:25:03.501Z,-2.46
2023-03-04T06:27:30.137Z,-2.54
2023-03-04T06:29:56.879Z,-2.52
2023-03-04T06:32:23.664Z,-2.49
2023-03-04T06:34:50.400Z,-2.46
2023-03-04T06:37:17.012Z,-2.45
2023-03-04T06:39:44.446Z,-2.45
2023-03-04T06:42:11.077Z,-2.44
2023-03-04T06:44:38.019Z,-2.41
2023-03-04T06:47:05.042Z,-2.40
2023-03-04T06:49:31.727Z,-2.39
2023-03-04T06:51:58.526Z,-2.42
2023-03-04T06:54:25.198Z,-2.41
2023-03-04T06:56:51.814Z,-2.39
2023-03-04T06:59:18.423Z,-2.36
2023-03-04T07:01:45.032Z,-2.38
2023-03-04T07:04:13.881Z,-2.35
2023-03-04T07:06:40.789Z,-2.38
2023-03-04T07:09:07.453Z,-2.40
2023-03-04T07:11:34.145Z,-2.48
2023-03-04T07:14:00.769Z,-2.44
2023-03-04T07:16:27.509Z,-2.42
2023-03-04T07:18:54.155Z,-2.37
2023-03-04T07:21:20.785Z,-2.37
2023-03-04T07:23:47.774Z,-2.33
2023-03-04T07:26:14.505Z,-2.34
2023-03-04T07:28:42.811Z,-2.29
2023-03-04T07:31:25.049Z,-2.29
2023-03-04T07:33:52.380Z,-2.24
2023-03-04T07:36:20.075Z,-2.23
2023-03-04T07:38:50.001Z,-2.30
2023-03-04T07:41:17.664Z,-2.30
2023-03-04T07:43:44.756Z,-2.26
2023-03-04T07:46:11.531Z,-2.24
2023-03-04T07:48:38.319Z,-2.18
2023-03-04T07:51:07.656Z,-2.13
2023-03-04T07:53:35.246Z,-2.15
2023-03-04T07:56:02.766Z,-2.16
2023-03-04T07:58:29.753Z,-2.13
2023-03-04T08:00:56.388Z,-2.10
2023-03-04T08:03:23.056Z,-2.15
2023-03-04T08:05:50.175Z,-2.13
2023-03-04T08:08:17.494Z,-2.04
2023-03-04T08:10:45.029Z,-2.04
2023-03-04T08:13:11.659Z,-2.01
2023-03-04T08:15:42.618Z,-1.99
2023-03-04T08:18:09.328Z,-1.98
2023-03-04T08:20:36.346Z,-1.95
2023-03-04T08:23:03.082Z,-1.93
2023-03-04T08:25:29.895Z,-1.87
2023-03-04T08:27:56.572Z,-1.80
2023-03-04T08:30:23.276Z,-1.77
2023-03-04T08:32:49.976Z,-1.75
2023-03-04T08:35:16.724Z,-1.71
2023-03-04T08:37:43.487Z,-1.64
2023-03-04T08:40:10.973Z,-1.61
2023-03-04T08:42:37.636Z,-1.49
2023-03-04T08:45:04.742Z,-1.42
2023-03-04T08:47:31.359Z,-1.36
2023-03-04T08:49:58.669Z,-1.25
2023-03-04T08:52:25.674Z,-1.28
2023-03-04T08:54:52.318Z,-1.19
2023-03-04T08:57:18.951Z,-1.14
2023-03-04T08:59:45.559Z,-1.07
2023-03-04T09:02:12.220Z,-1.06
2023-03-04T09:04:39.029Z,-1.07
2023-03-04T09:07:05.960Z,-1.06
2023-03-04T09:09:32.574Z,-1.04
2023-03-04T09:11:59.196Z,-1.12
2023-03-04T09:14:25.873Z,-1.13
2023-03-04T09:16:52.495Z,-1.06
2023-03-04T09:19:19.096Z,-0.99
2023-03-04T09:21:45.706Z,-0.92
2023-03-04T09:24:12.383Z,-0.86
2023-03-04T09:26:38.997Z,-0.79
2023-03-04T09:29:06.669Z,-0.70
2023-03-04T09:31:33.399Z,-0.69
2023-03-04T09:34:00.573Z,-0.72
2023-03-04T09:36:27.327Z,-0.68
2023-03-04T09:38:53.986Z,-0.68
2023-03-04T09:41:25.617Z,-0.66
2023-03-04T09:43:54.509Z,-0.45
2023-03-04T09:46:36.250Z,-0.39
2023-03-04T09:49:05.349Z,-0.45
2023-03-04T09:51:45.706Z,-0.35
2023-03-04T09:54:32.484Z,-0.32
2023-03-04T09:57:37.314Z,-0.11
2023-03-04T10:00:13.101Z,0.14
2023-03-04T10:03:01.604Z,0.37
2023-03-04T10:05:32.370Z,0.23
2023-03-04T10:08:07.877Z,0.23
2023-03-04T10:10:40.331Z,0.28
2023-03-04T10:13:14.365Z,0.32
2023-03-04T10:15:46.260Z,0.43
2023-03-04T10:18:27.669Z,0.62
2023-03-04T10:20:58.993Z,0.71
2023-03-04T10:23:28.281Z,0.72
2023-03-04T10:25:56.319Z,0.76
2023-03-04T10:28:29.402Z,0.89
2023-03-04T10:31:05.093Z,0.99
2023-03-04T10:33:37.563Z,0.87
2023-03-04T10:36:09.874Z,0.87
2023-03-04T10:38:39.565Z,0.99
2023-03-04T10:41:20.165Z,1.09
2023-03-04T10:44:00.089Z,1.04
2023-03-04T10:46:27.281Z,1.00
2023-03-04T10:48:54.516Z,1.01
2023-03-04T10:51:24.470Z,1.16
2023-03-04T10:54:29.515Z,1.31
2023-03-04T10:57:04.960Z,1.37
2023-03-04T10:59:38.781Z,1.46
2023-03-04T11:02:26.922Z,1.47
2023-03-04T11:05:19.301Z,1.36
2023-03-04T11:07:56.647Z,1.42
2023-03-04T11:10:36.003Z,1.66
2023-03-04T11:13:19.134Z,1.90
2023-03-04T11:15:51.587Z,2.04
2023-03-04T11:18:24.233Z,2.02
2023-03-04T11:20:51.667Z,1.94
2023-03-04T11:23:29.265Z,1.93
2023-03-04T11:26:04.850Z,1.85
2023-03-04T11:28:44.716Z,1.77
2023-03-04T11:31:41.454Z,1.67
2023-03-04T11:34:45.352Z,1.68
2023-03-04T11:37:17.964Z,1.85
2023-03-04T11:39:44.545Z,1.87
2023-03-04T11:42:32.651Z,1.92
2023-03-04T11:44:59.721Z,2.10
2023-03-04T11:48:00.537Z,2.11
2023-03-04T11:50:51.320Z,2.27
2023-03-04T11:53:29.382Z,2.31
2023-03-04T11:56:02.095Z,2.38
2023-03-04T11:59:01.000Z,2.50
2023-03-04T12:01:39.642Z,2.56
2023-03-04T12:04:20.367Z,2.57
2023-03-04T12:07:16.712Z,2.44
2023-03-04T12:10:05.959Z,2.51
2023-03-04T12:12:47.771Z,2.51
2023-03-04T12:15:23.470Z,2.48
2023-03-04T12:18:11.987Z,2.34
2023-03-04T12:20:53.525Z,2.28
2023-03-04T12:23:29.713Z,2.26
2023-03-04T12:26:22.206Z,2.29
2023-03-04T12:29:03.151Z,2.21
2023-03-04T12:31:45.548Z,2.12
2023-03-04T12:34:34.871Z,2.07
2023-03-04T12:37:11.900Z,2.12
2023-03-04T12:39:56.906Z,2.18
2023-03-04T12:42:41.861Z,2.26
2023-03-04T12:45:33.200Z,2.23
2023-03-04T12:48:11.765Z,2.24
2023-03-04T12:50:48.104Z,2.21
2023-03-04T12:53:23.609Z,2.23
2023-03-04T12:55:50.529Z,2.19
2023-03-04T12:58:24.530Z,2.10
2023-03-04T13:01:16.155Z,2.09
2023-03-04T13:04:12.861Z,2.19
2023-03-04T13:07:04.332Z,2.18
2023-03-04T13:09:38.425Z,2.22
2023-03-04T13:12:16.362Z,2.27
2023-03-04T13:15:08.598Z,2.21
2023-03-04T13:17:45.920Z,2.20
2023-03-04T13:20:24.554Z,2.22
2023-03-04T13:22:58.153Z,2.05
2023-03-04T13:25:30.503Z,1.91
2023-03-04T13:28:03.243Z,1.84
2023-03-04T13:30:35.524Z,1.83
2023-03-04T13:33:11.126Z,1.84
2023-03-04T13:35:49.394Z,1.81
2023-03-04T13:38:28.636Z,1.79
2023-03-04T13:41:14.061Z,1.77
2023-03-04T13:43:40.702Z,1.72
2023-03-04T13:46:19.572Z,1.70
2023-03-04T13:48:52.312Z,1.62
2023-03-04T13:51:33.956Z,1.56
2023-03-04T13:54:00.666Z,1.49
2023-03-04T13:56:33.483Z,1.47
2023-03-04T13:59:07.154Z,1.51
2023-03-04T14:02:16.962Z,1.51
2023-03-04T14:04:46.223Z,1.41
2023-03-04T14:07:36.791Z,1.34
2023-03-04T14:10:11.409Z,1.26
2023-03-04T14:12:51.114Z,1.19
2023-03-04T14:15:20.413Z,1.23
2023-03-04T14:17:52.118Z,1.23
2023-03-04T14:20:29.759Z,1.21
2023-03-04T14:22:58.350Z,1.18
2023-03-04T14:25:28.755Z,1.24
2023-03-04T14:28:14.575Z,1.20
2023-03-04T14:30:44.290Z,1.18
2023-03-04T14:33:18.520Z,1.17
2023-03-04T14:35:51.210Z,1.11
2023-03-04T14:38:38.232Z,1.09
2023-03-04T14:41:15.685Z,1.01
2023-03-04T14:43:56.081Z,0.97
2023-03-04T14:46:27.037Z,0.96
2023-03-04T14:48:56.536Z,0.94
2023-03-04T14:51:46.089Z,0.95
2023-03-04T14:54:29.554Z,0.99
2023-03-04T14:56:56.673Z,1.05
2023-03-04T14:59:35.033Z,1.11
2023-03-04T15:02:31.265Z,1.18
2023-03-04T15:05:16.890Z,1.24
2023-03-04T15:07:51.927Z,1.31
2023-03-04T15:10:24.248Z,1.33
2023-03-04T15:12:53.584Z,1.35
2023-03-04T15:15:45.968Z,1.42
2023-03-04T15:18:23.920Z,1.49
2023-03-04T15:21:28.309Z,1.50
2023-03-04T15:23:54.910Z,1.50
2023-03-04T15:26:21.678Z,1.50
2023-03-04T15:28:48.352Z,1.49
2023-03-04T15:31:17.827Z,1.50
2023-03-04T15:33:44.673Z,1.51
2023-03-04T15:36:16.962Z,1.51
2023-03-04T15:38:50.177Z,1.54
2023-03-04T15:41:25.677Z,1.52
2023-03-04T15:43:54.023Z,1.49
2023-03-04T15:46:21.190Z,1.46
2023-03-04T15:48:48.558Z,1.44
2023-03-04T15:51:22.222Z,1.41
2023-03-04T15:53:52.114Z,1.39
2023-03-04T15:56:22.046Z,1.38
2023-03-04T15:58:54.346Z,1.37
2023-03-04T16:01:21.358Z,1.33
2023-03-04T16:03:48.004Z,1.29
2023-03-04T16:06:18.781Z,1.27
2023-03-04T16:08:46.122Z,1.25
2023-03-04T16:11:17.447Z,1.27
2023-03-04T16:13:44.082Z,1.27
2023-03-04T16:16:12.767Z,1.30
2023-03-04T16:18:40.598Z,1.34
2023-03-04T16:21:11.652Z,1.36
2023-03-04T16:23:43.605Z,1.37
2023-03-04T16:26:13.936Z,1.40
2023-03-04T16:28:40.913Z,1.43
2023-03-04T16:31:08.075Z,1.47
2023-03-04T16:33:34.764Z,1.50
2023-03-04T16:36:03.958Z,1.51
2023-03-04T16:38:34.550Z,1.52
2023-03-04T16:41:04.578Z,1.53
2023-03-04T16:43:31.193Z,1.54
2023-03-04T16:45:57.860Z,1.54
2023-03-04T16:48:24.548Z,1.54
2023-03-04T16:50:51.564Z,1.54
2023-03-04T16:53:31.842Z,1.55
2023-03-04T16:56:07.785Z,1.55
2023-03-04T16:58:35.357Z,1.56
2023-03-04T17:01:02.588Z,1.55
2023-03-04T17:03:29.247Z,1.54
2023-03-04T17:05:55.920Z,1.52
2023-03-04T17:08:22.552Z,1.50
2023-03-04T17:10:50.412Z,1.50
2023-03-04T17:13:17.105Z,1.47
2023-03-04T17:15:45.523Z,1.46
2023-03-04T17:18:12.297Z,1.43
2023-03-04T17:20:39.017Z,1.43
2023-03-04T17:23:05.749Z,1.40
2023-03-04T17:25:33.490Z,1.39
2023-03-04T17:28:00.176Z,1.37
2023-03-04T17:30:26.837Z,1.35
2023-03-04T17:32:53.550Z,1.32
2023-03-04T17:35:20.246Z,1.30
2023-03-04T17:37:46.902Z,1.27
2023-03-04T17:40:14.444Z,1.26
2023-03-04T17:42:42.964Z,1.21
2023-03-04T17:45:11.045Z,1.15
2023-03-04T17:47:38.197Z,1.10
2023-03-04T17:50:06.822Z,1.07
2023-03-04T17:52:34.055Z,1.02
2023-03-04T17:55:00.696Z,0.97
2023-03-04T17:57:27.478Z,0.95
2023-03-04T17:59:54.601Z,0.92
2023-03-04T18:02:21.246Z,0.87
2023-03-04T18:04:50.217Z,0.85
2023-03-04T18:07:16.874Z,0.81
2023-03-04T18:09:44.517Z,0.77
2023-03-04T18:12:11.232Z,0.71
2023-03-04T18:14:37.871Z,0.69
2023-03-04T18:17:04.525Z,0.66
2023-03-04T18:19:31.453Z,0.64
2023-03-04T18:21:58.141Z,0.61
2023-03-04T18:24:24.782Z,0.58
2023-03-04T18:26:51.748Z,0.58
2023-03-04T18:29:18.399Z,0.55
2023-03-04T18:31:45.025Z,0.52
2023-03-04T18:34:11.759Z,0.47
2023-03-04T18:36:38.412Z,0.45
2023-03-04T18:39:07.396Z,0.43
2023-03-04T18:41:34.187Z,0.41
2023-03-04T18:44:01.011Z,0.36
2023-03-04T18:46:42.540Z,0.35
2023-03-04T18:49:10.526Z,0.34
2023-03-04T18:51:37.244Z,0.30
2023-03-04T18:54:04.148Z,0.26
2023-03-04T18:56:40.023Z,0.24
2023-03-04T18:59:10.957Z,0.22
2023-03-04T19:01:37.711Z,0.20
2023-03-04T19:04:05.692Z,0.17
2023-03-04T19:06:33.911Z,0.14
2023-03-04T19:09:01.209Z,0.12
2023-03-04T19:11:29.904Z,0.10
2023-03-04T19:13:56.533Z,0.07
2023-03-04T19:16:23.485Z,0.05
2023-03-04T19:18:50.161Z,0.01
2023-03-04T19:21:17.860Z,-0.03
2023-03-04T19:23:44.580Z,-0.05
2023-03-04T19:26:13.761Z,-0.08
2023-03-04T19:28:40.412Z,-0.09
2023-03-04T19:31:08.473Z,-0.11
2023-03-04T19:33:36.703Z,-0.13
2023-03-04T19:36:04.845Z,-0.16
2023-03-04T19:38:32.886Z,-0.19
2023-03-04T19:41:07.134Z,-0.22
2023-03-04T19:43:36.987Z,-0.23
2023-03-04T19:46:03.651Z,-0.24
2023-03-04T19:48:30.413Z,-0.27
2023-03-04T19:50:57.039Z,-0.28
2023-03-04T19:53:23.672Z,-0.30
2023-03-04T19:55:50.539Z,-0.31
2023-03-04T19:58:17.181Z,-0.32
2023-03-04T20:00:44.768Z,-0.33
2023-03-04T20:03:12.250Z,-0.37
2023-03-04T20:05:39.015Z,-0.38
2023-03-04T20:08:05.968Z,-0.41
2023-03-04T20:10:36.618Z,-0.42
2023-03-04T20:13:04.393Z,-0.45
2023-03-04T20:15:31.152Z,-0.46
2023-03-04T20:17:57.857Z,-0.48
2023-03-04T20:20:28.672Z,-0.50
2023-03-04T20:22:58.488Z,-0.52
2023-03-04T20:25:25.816Z,-0.54
2023-03-04T20:27:52.500Z,-0.55
2023-03-04T20:30:19.124Z,-0.58
2023-03-04T20:32:45.739Z,-0.59
2023-03-04T20:35:15.095Z,-0.62
2023-03-04T20:37:42.657Z,-0.64
2023-03-04T20:40:11.370Z,-0.63
2023-03-04T20:42:38.151Z,-0.64
2023-03-04T20:45:05.660Z,-0.66
2023-03-04T20:47:32.484Z,-0.65
2023-03-04T20:49:59.130Z,-0.66
2023-03-04T20:52:25.739Z,-0.66
2023-03-04T20:54:52.366Z,-0.67
2023-03-04T20:57:19.213Z,-0.72
2023-03-04T20:59:45.911Z,-0.72
2023-03-04T21:02:15.499Z,-0.73
2023-03-04T21:04:42.262Z,-0.73
2023-03-04T21:07:08.947Z,-0.74
2023-03-04T21:09:35.890Z,-0.76
2023-03-04T21:12:02.593Z,-0.80
2023-03-04T21:14:31.273Z,-0.84
2023-03-04T21:17:00.551Z,-0.84
2023-03-04T21:19:36.722Z,-0.86
2023-03-04T21:22:04.359Z,-0.87
2023-03-04T21:24:34.192Z,-0.88
2023-03-04T21:27:01.661Z,-0.92
2023-03-04T21:29:28.580Z,-0.93
2023-03-04T21:32:07.155Z,-0.96
2023-03-04T21:34:48.420Z,-0.99
2023-03-04T21:37:15.108Z,-1.02
2023-03-04T21:39:41.841Z,-1.04
2023-03-04T21:42:08.634Z,-1.06
2023-03-04T21:44:48.519Z,-1.10
2023-03-04T21:47:16.216Z,-1.11
2023-03-04T21:49:42.865Z,-1.12
2023-03-04T21:52:09.522Z,-1.13
2023-03-04T21:54:36.249Z,-1.17
2023-03-04T21:57:03.202Z,-1.17
2023-03-04T21:59:29.863Z,-1.18
2023-03-04T22:01:56.636Z,-1.22
2023-03-04T22:04:23.439Z,-1.23
2023-03-04T22:06:50.110Z,-1.27
2023-03-04T22:09:16.797Z,-1.27
2023-03-04T22:11:43.544Z,-1.27
2023-03-04T22:14:11.167Z,-1.29
2023-03-04T22:16:48.872Z,-1.32
2023-03-04T22:19:19.705Z,-1.33
2023-03-04T22:21:46.368Z,-1.35
2023-03-04T22:24:13.030Z,-1.34
2023-03-04T22:26:39.730Z,-1.36
2023-03-04T22:29:06.490Z,-1.39
2023-03-04T22:31:35.308Z,-1.39
2023-03-04T22:34:13.627Z,-1.41
2023-03-04T22:36:42.829Z,-1.44
2023-03-04T22:39:12.071Z,-1.46
2023-03-04T22:41:38.731Z,-1.48
2023-03-04T22:44:06.465Z,-1.49
2023-03-04T22:46:35.799Z,-1.52
2023-03-04T22:49:04.918Z,-1.53
2023-03-04T22:51:32.860Z,-1.54
2023-03-04T22:53:59.556Z,-1.55
2023-03-04T22:56:26.260Z,-1.57
2023-03-04T22:58:52.911Z,-1.58
2023-03-04T23:01:20.380Z,-1.59
2023-03-04T23:03:48.493Z,-1.60
2023-03-04T23:06:21.246Z,-1.61
2023-03-04T23:08:50.107Z,-1.62
2023-03-04T23:11:28.977Z,-1.62
2023-03-04T23:13:56.289Z,-1.62
2023-03-04T23:16:24.902Z,-1.63
2023-03-04T23:18:53.376Z,-1.63
2023-03-04T23:21:25.727Z,-1.63
2023-03-04T23:23:53.194Z,-1.65
2023-03-04T23:26:28.824Z,-1.68
2023-03-04T23:28:57.025Z,-1.69
2023-03-04T23:31:25.585Z,-1.69
2023-03-04T23:33:57.180Z,-1.70
2023-03-04T23:36:31.197Z,-1.72
2023-03-04T23:38:58.687Z,-1.74
2023-03-04T23:41:28.223Z,-1.74
2023-03-04T23:43:57.016Z,-1.75
2023-03-04T23:46:23.926Z,-1.74
2023-03-04T23:48:50.973Z,-1.73
2023-03-04T23:51:21.013Z,-1.72
2023-03-04T23:53:47.827Z,-1.71
2023-03-04T23:56:24.109Z,-1.72
2023-03-04T23:58:50.969Z,-1.73
